sensor_id;sensor_type;location;lat;lon;timestamp;P1;durP1;ratioP1;P2;durP2;ratioP2
77586;SDS011;66744;49.716;17.158;2023-04-03T00:02:40;3.63;;;1.88;;
77586;SDS011;66744;49.716;17.158;2023-04-03T00:05:41;4.57;;;2.50;;
77586;SDS011;66744;49.716;17.158;2023-04-03T00:08:42;4.32;;;2.40;;
77586;SDS011;66744;49.716;17.158;2023-04-03T00:11:45;3.63;;;2.83;;
77586;SDS011;66744;49.716;17.158;2023-04-03T00:14:46;3.30;;;1.98;;
77586;SDS011;66744;49.716;17.158;2023-04-03T00:17:47;3.30;;;2.63;;
77586;SDS011;66744;49.716;17.158;2023-04-03T00:20:49;2.60;;;2.08;;
77586;SDS011;66744;49.716;17.158;2023-04-03T00:23:50;4.80;;;2.85;;
77586;SDS011;66744;49.716;17.158;2023-04-03T00:26:52;2.50;;;1.60;;
77586;SDS011;66744;49.716;17.158;2023-04-03T00:29:55;2.22;;;1.70;;
77586;SDS011;66744;49.716;17.158;2023-04-03T00:32:57;3.35;;;2.13;;
77586;SDS011;66744;49.716;17.158;2023-04-03T00:35:58;1.60;;;1.08;;
77586;SDS011;66744;49.716;17.158;2023-04-03T00:38:59;1.63;;;0.93;;
77586;SDS011;66744;49.716;17.158;2023-04-03T00:42:00;1.20;;;1.05;;
77586;SDS011;66744;49.716;17.158;2023-04-03T00:48:04;1.48;;;1.13;;
77586;SDS011;66744;49.716;17.158;2023-04-03T00:51:09;1.67;;;1.40;;
77586;SDS011;66744;49.716;17.158;2023-04-03T00:54:13;2.58;;;1.58;;
77586;SDS011;66744;49.716;17.158;2023-04-03T00:57:15;1.65;;;1.15;;
77586;SDS011;66744;49.716;17.158;2023-04-03T01:00:19;1.48;;;1.10;;
77586;SDS011;66744;49.716;17.158;2023-04-03T01:03:23;1.90;;;1.42;;
77586;SDS011;66744;49.716;17.158;2023-04-03T01:06:43;2.53;;;1.38;;
77586;SDS011;66744;49.716;17.158;2023-04-03T01:09:45;1.98;;;0.98;;
77586;SDS011;66744;49.716;17.158;2023-04-03T01:12:49;1.70;;;1.45;;
77586;SDS011;66744;49.716;17.158;2023-04-03T01:15:51;1.65;;;1.38;;
77586;SDS011;66744;49.716;17.158;2023-04-03T01:18:53;1.25;;;0.90;;
77586;SDS011;66744;49.716;17.158;2023-04-03T01:25:17;1.98;;;1.35;;
77586;SDS011;66744;49.716;17.158;2023-04-03T01:31:25;1.52;;;1.08;;
77586;SDS011;66744;49.716;17.158;2023-04-03T01:34:46;3.78;;;1.20;;
77586;SDS011;66744;49.716;17.158;2023-04-03T01:37:47;2.15;;;1.50;;
77586;SDS011;66744;49.716;17.158;2023-04-03T01:40:48;1.73;;;0.88;;
77586;SDS011;66744;49.716;17.158;2023-04-03T01:43:50;1.95;;;1.60;;
77586;SDS011;66744;49.716;17.158;2023-04-03T01:46:51;1.35;;;1.25;;
77586;SDS011;66744;49.716;17.158;2023-04-03T01:49:52;2.83;;;1.55;;
77586;SDS011;66744;49.716;17.158;2023-04-03T01:52:54;2.95;;;1.45;;
77586;SDS011;66744;49.716;17.158;2023-04-03T01:55:55;1.88;;;1.13;;
77586;SDS011;66744;49.716;17.158;2023-04-03T01:58:58;2.28;;;1.90;;
77586;SDS011;66744;49.716;17.158;2023-04-03T02:01:59;1.98;;;1.20;;
77586;SDS011;66744;49.716;17.158;2023-04-03T02:05:00;2.45;;;1.58;;
77586;SDS011;66744;49.716;17.158;2023-04-03T02:08:03;1.58;;;1.10;;
77586;SDS011;66744;49.716;17.158;2023-04-03T02:11:04;3.80;;;1.77;;
77586;SDS011;66744;49.716;17.158;2023-04-03T02:14:07;1.95;;;1.23;;
77586;SDS011;66744;49.716;17.158;2023-04-03T02:17:09;3.08;;;1.63;;
77586;SDS011;66744;49.716;17.158;2023-04-03T02:20:10;2.53;;;1.80;;
77586;SDS011;66744;49.716;17.158;2023-04-03T02:23:11;3.67;;;1.88;;
77586;SDS011;66744;49.716;17.158;2023-04-03T02:26:14;2.35;;;1.23;;
77586;SDS011;66744;49.716;17.158;2023-04-03T02:29:16;4.57;;;1.67;;
77586;SDS011;66744;49.716;17.158;2023-04-03T02:32:18;3.38;;;2.22;;
77586;SDS011;66744;49.716;17.158;2023-04-03T02:35:19;3.38;;;2.40;;
77586;SDS011;66744;49.716;17.158;2023-04-03T02:38:22;3.25;;;1.80;;
77586;SDS011;66744;49.716;17.158;2023-04-03T02:41:24;2.45;;;2.25;;
77586;SDS011;66744;49.716;17.158;2023-04-03T02:44:30;4.13;;;2.65;;
77586;SDS011;66744;49.716;17.158;2023-04-03T02:47:32;5.28;;;3.05;;
77586;SDS011;66744;49.716;17.158;2023-04-03T02:50:34;5.18;;;3.13;;
77586;SDS011;66744;49.716;17.158;2023-04-03T02:53:35;5.10;;;2.50;;
77586;SDS011;66744;49.716;17.158;2023-04-03T02:56:43;4.25;;;2.45;;
77586;SDS011;66744;49.716;17.158;2023-04-03T02:59:45;5.57;;;3.42;;
77586;SDS011;66744;49.716;17.158;2023-04-03T03:02:48;5.03;;;3.15;;
77586;SDS011;66744;49.716;17.158;2023-04-03T03:05:50;7.88;;;6.00;;
77586;SDS011;66744;49.716;17.158;2023-04-03T03:08:51;8.13;;;4.40;;
77586;SDS011;66744;49.716;17.158;2023-04-03T03:11:53;7.18;;;3.50;;
77586;SDS011;66744;49.716;17.158;2023-04-03T03:14:54;4.35;;;3.35;;
77586;SDS011;66744;49.716;17.158;2023-04-03T03:17:55;5.28;;;3.97;;
77586;SDS011;66744;49.716;17.158;2023-04-03T03:20:58;5.80;;;3.95;;
77586;SDS011;66744;49.716;17.158;2023-04-03T03:24:01;4.40;;;3.95;;
77586;SDS011;66744;49.716;17.158;2023-04-03T03:27:02;4.78;;;3.60;;
77586;SDS011;66744;49.716;17.158;2023-04-03T03:30:04;5.70;;;3.13;;
77586;SDS011;66744;49.716;17.158;2023-04-03T03:33:07;7.55;;;3.38;;
77586;SDS011;66744;49.716;17.158;2023-04-03T03:36:08;10.90;;;4.93;;
77586;SDS011;66744;49.716;17.158;2023-04-03T03:39:12;4.40;;;3.65;;
77586;SDS011;66744;49.716;17.158;2023-04-03T03:42:13;4.80;;;4.13;;
77586;SDS011;66744;49.716;17.158;2023-04-03T03:45:15;5.82;;;4.05;;
77586;SDS011;66744;49.716;17.158;2023-04-03T03:48:17;5.82;;;3.47;;
77586;SDS011;66744;49.716;17.158;2023-04-03T03:51:18;11.32;;;4.90;;
77586;SDS011;66744;49.716;17.158;2023-04-03T03:54:19;6.30;;;3.42;;
77586;SDS011;66744;49.716;17.158;2023-04-03T03:57:21;7.15;;;4.22;;
77586;SDS011;66744;49.716;17.158;2023-04-03T04:00:23;7.43;;;3.72;;
77586;SDS011;66744;49.716;17.158;2023-04-03T04:03:29;6.95;;;3.90;;
77586;SDS011;66744;49.716;17.158;2023-04-03T04:06:30;7.43;;;4.57;;
77586;SDS011;66744;49.716;17.158;2023-04-03T04:09:36;7.60;;;4.80;;
77586;SDS011;66744;49.716;17.158;2023-04-03T04:12:37;7.93;;;4.57;;
77586;SDS011;66744;49.716;17.158;2023-04-03T04:15:39;6.05;;;4.28;;
77586;SDS011;66744;49.716;17.158;2023-04-03T04:18:41;7.65;;;4.68;;
77586;SDS011;66744;49.716;17.158;2023-04-03T04:21:42;10.20;;;4.55;;
77586;SDS011;66744;49.716;17.158;2023-04-03T04:24:44;5.88;;;4.18;;
77586;SDS011;66744;49.716;17.158;2023-04-03T04:27:46;5.80;;;4.05;;
77586;SDS011;66744;49.716;17.158;2023-04-03T04:30:49;5.45;;;4.10;;
77586;SDS011;66744;49.716;17.158;2023-04-03T04:33:52;4.80;;;4.00;;
77586;SDS011;66744;49.716;17.158;2023-04-03T04:36:54;5.30;;;3.05;;
77586;SDS011;66744;49.716;17.158;2023-04-03T04:39:56;8.73;;;4.60;;
77586;SDS011;66744;49.716;17.158;2023-04-03T04:42:57;8.73;;;4.50;;
77586;SDS011;66744;49.716;17.158;2023-04-03T04:49:19;6.03;;;4.63;;
77586;SDS011;66744;49.716;17.158;2023-04-03T04:52:21;8.73;;;5.25;;
77586;SDS011;66744;49.716;17.158;2023-04-03T04:55:22;9.65;;;4.18;;
77586;SDS011;66744;49.716;17.158;2023-04-03T04:58:25;12.25;;;4.80;;
77586;SDS011;66744;49.716;17.158;2023-04-03T05:01:26;6.28;;;4.53;;
77586;SDS011;66744;49.716;17.158;2023-04-03T05:04:42;6.20;;;4.63;;
77586;SDS011;66744;49.716;17.158;2023-04-03T05:07:49;5.90;;;4.38;;
77586;SDS011;66744;49.716;17.158;2023-04-03T05:10:51;8.68;;;4.15;;
77586;SDS011;66744;49.716;17.158;2023-04-03T05:13:54;9.05;;;4.47;;
77586;SDS011;66744;49.716;17.158;2023-04-03T05:16:57;5.30;;;4.32;;
77586;SDS011;66744;49.716;17.158;2023-04-03T05:20:03;7.85;;;4.55;;
77586;SDS011;66744;49.716;17.158;2023-04-03T05:23:05;6.68;;;4.07;;
77586;SDS011;66744;49.716;17.158;2023-04-03T05:26:09;5.28;;;4.32;;
77586;SDS011;66744;49.716;17.158;2023-04-03T05:29:11;6.35;;;3.88;;
77586;SDS011;66744;49.716;17.158;2023-04-03T05:32:13;8.40;;;4.30;;
77586;SDS011;66744;49.716;17.158;2023-04-03T05:35:15;6.53;;;3.38;;
77586;SDS011;66744;49.716;17.158;2023-04-03T05:38:17;6.95;;;3.53;;
77586;SDS011;66744;49.716;17.158;2023-04-03T05:41:19;7.05;;;2.90;;
77586;SDS011;66744;49.716;17.158;2023-04-03T05:44:22;7.60;;;3.40;;
77586;SDS011;66744;49.716;17.158;2023-04-03T05:47:25;5.20;;;4.18;;
77586;SDS011;66744;49.716;17.158;2023-04-03T05:50:26;5.57;;;4.15;;
77586;SDS011;66744;49.716;17.158;2023-04-03T05:53:29;8.18;;;4.15;;
77586;SDS011;66744;49.716;17.158;2023-04-03T05:56:37;6.00;;;4.85;;
77586;SDS011;66744;49.716;17.158;2023-04-03T05:59:38;6.40;;;4.63;;
77586;SDS011;66744;49.716;17.158;2023-04-03T06:02:40;4.75;;;4.25;;
77586;SDS011;66744;49.716;17.158;2023-04-03T06:05:48;8.57;;;4.60;;
77586;SDS011;66744;49.716;17.158;2023-04-03T06:08:50;6.28;;;3.80;;
77586;SDS011;66744;49.716;17.158;2023-04-03T06:11:51;5.93;;;4.20;;
77586;SDS011;66744;49.716;17.158;2023-04-03T06:14:55;4.72;;;4.15;;
77586;SDS011;66744;49.716;17.158;2023-04-03T06:17:56;6.68;;;3.80;;
77586;SDS011;66744;49.716;17.158;2023-04-03T06:20:58;6.07;;;3.58;;
77586;SDS011;66744;49.716;17.158;2023-04-03T06:24:02;7.75;;;4.32;;
77586;SDS011;66744;49.716;17.158;2023-04-03T06:27:09;7.25;;;4.50;;
77586;SDS011;66744;49.716;17.158;2023-04-03T06:30:11;6.68;;;5.30;;
77586;SDS011;66744;49.716;17.158;2023-04-03T06:33:13;7.75;;;3.47;;
77586;SDS011;66744;49.716;17.158;2023-04-03T06:36:15;3.33;;;2.88;;
77586;SDS011;66744;49.716;17.158;2023-04-03T06:39:21;4.88;;;2.45;;
77586;SDS011;66744;49.716;17.158;2023-04-03T06:42:23;3.40;;;2.47;;
77586;SDS011;66744;49.716;17.158;2023-04-03T06:45:34;7.13;;;2.30;;
77586;SDS011;66744;49.716;17.158;2023-04-03T06:48:37;4.45;;;2.60;;
77586;SDS011;66744;49.716;17.158;2023-04-03T06:51:38;6.63;;;3.30;;
77586;SDS011;66744;49.716;17.158;2023-04-03T06:54:39;5.53;;;2.63;;
77586;SDS011;66744;49.716;17.158;2023-04-03T06:57:42;5.95;;;3.28;;
77586;SDS011;66744;49.716;17.158;2023-04-03T07:00:43;4.45;;;3.00;;
77586;SDS011;66744;49.716;17.158;2023-04-03T07:03:48;6.13;;;2.65;;
77586;SDS011;66744;49.716;17.158;2023-04-03T07:06:49;6.50;;;3.85;;
77586;SDS011;66744;49.716;17.158;2023-04-03T07:09:51;6.43;;;3.25;;
77586;SDS011;66744;49.716;17.158;2023-04-03T07:12:53;5.57;;;2.42;;
77586;SDS011;66744;49.716;17.158;2023-04-03T07:15:54;6.30;;;3.65;;
77586;SDS011;66744;49.716;17.158;2023-04-03T07:18:55;3.45;;;2.13;;
77586;SDS011;66744;49.716;17.158;2023-04-03T07:21:57;3.50;;;2.45;;
77586;SDS011;66744;49.716;17.158;2023-04-03T07:24:58;4.25;;;2.85;;
77586;SDS011;66744;49.716;17.158;2023-04-03T07:27:59;5.32;;;2.60;;
77586;SDS011;66744;49.716;17.158;2023-04-03T07:31:05;7.15;;;2.55;;
77586;SDS011;66744;49.716;17.158;2023-04-03T07:34:09;4.65;;;2.25;;
77586;SDS011;66744;49.716;17.158;2023-04-03T07:37:13;3.53;;;2.95;;
77586;SDS011;66744;49.716;17.158;2023-04-03T07:40:15;4.50;;;3.35;;
77586;SDS011;66744;49.716;17.158;2023-04-03T07:43:17;7.05;;;3.10;;
77586;SDS011;66744;49.716;17.158;2023-04-03T07:46:19;5.07;;;3.00;;
77586;SDS011;66744;49.716;17.158;2023-04-03T07:49:21;6.75;;;2.60;;
77586;SDS011;66744;49.716;17.158;2023-04-03T07:52:30;6.05;;;3.13;;
77586;SDS011;66744;49.716;17.158;2023-04-03T07:55:32;4.50;;;2.10;;
77586;SDS011;66744;49.716;17.158;2023-04-03T07:58:33;3.40;;;2.47;;
77586;SDS011;66744;49.716;17.158;2023-04-03T08:01:34;3.45;;;2.45;;
77586;SDS011;66744;49.716;17.158;2023-04-03T08:04:36;3.85;;;2.28;;
77586;SDS011;66744;49.716;17.158;2023-04-03T08:07:37;4.43;;;2.58;;
77586;SDS011;66744;49.716;17.158;2023-04-03T08:10:41;4.10;;;1.95;;
77586;SDS011;66744;49.716;17.158;2023-04-03T08:13:43;4.25;;;1.98;;
77586;SDS011;66744;49.716;17.158;2023-04-03T08:16:45;3.08;;;2.85;;
77586;SDS011;66744;49.716;17.158;2023-04-03T08:19:48;3.75;;;2.60;;
77586;SDS011;66744;49.716;17.158;2023-04-03T08:22:49;4.35;;;1.83;;
77586;SDS011;66744;49.716;17.158;2023-04-03T08:25:52;5.40;;;3.15;;
77586;SDS011;66744;49.716;17.158;2023-04-03T08:28:53;6.22;;;2.80;;
77586;SDS011;66744;49.716;17.158;2023-04-03T08:31:55;3.75;;;1.83;;
77586;SDS011;66744;49.716;17.158;2023-04-03T08:34:59;4.95;;;2.15;;
77586;SDS011;66744;49.716;17.158;2023-04-03T08:38:00;5.35;;;3.53;;
77586;SDS011;66744;49.716;17.158;2023-04-03T08:47:50;5.50;;;2.08;;
77586;SDS011;66744;49.716;17.158;2023-04-03T08:50:54;5.57;;;3.58;;
77586;SDS011;66744;49.716;17.158;2023-04-03T08:54:00;4.63;;;2.72;;
77586;SDS011;66744;49.716;17.158;2023-04-03T08:57:09;3.40;;;2.42;;
77586;SDS011;66744;49.716;17.158;2023-04-03T09:03:17;5.20;;;2.05;;
77586;SDS011;66744;49.716;17.158;2023-04-03T09:06:26;4.32;;;2.70;;
77586;SDS011;66744;49.716;17.158;2023-04-03T09:09:32;4.25;;;2.83;;
77586;SDS011;66744;49.716;17.158;2023-04-03T09:12:41;3.95;;;2.17;;
77586;SDS011;66744;49.716;17.158;2023-04-03T09:15:46;3.63;;;3.00;;
77586;SDS011;66744;49.716;17.158;2023-04-03T09:18:48;6.57;;;2.45;;
77586;SDS011;66744;49.716;17.158;2023-04-03T09:22:13;4.35;;;2.45;;
77586;SDS011;66744;49.716;17.158;2023-04-03T09:25:18;3.72;;;2.30;;
77586;SDS011;66744;49.716;17.158;2023-04-03T09:28:22;4.80;;;2.10;;
77586;SDS011;66744;49.716;17.158;2023-04-03T09:31:25;4.13;;;2.38;;
77586;SDS011;66744;49.716;17.158;2023-04-03T09:34:32;4.22;;;2.40;;
77586;SDS011;66744;49.716;17.158;2023-04-03T09:37:44;4.00;;;1.73;;
77586;SDS011;66744;49.716;17.158;2023-04-03T09:40:51;3.65;;;1.70;;
77586;SDS011;66744;49.716;17.158;2023-04-03T09:44:22;3.90;;;2.40;;
77586;SDS011;66744;49.716;17.158;2023-04-03T09:47:34;3.45;;;2.08;;
77586;SDS011;66744;49.716;17.158;2023-04-03T09:57:45;4.18;;;1.98;;
77586;SDS011;66744;49.716;17.158;2023-04-03T10:00:53;4.43;;;1.67;;
77586;SDS011;66744;49.716;17.158;2023-04-03T10:07:29;4.07;;;2.15;;
77586;SDS011;66744;49.716;17.158;2023-04-03T10:10:32;2.67;;;1.88;;
77586;SDS011;66744;49.716;17.158;2023-04-03T10:13:33;3.38;;;2.55;;
77586;SDS011;66744;49.716;17.158;2023-04-03T10:16:41;2.50;;;1.98;;
77586;SDS011;66744;49.716;17.158;2023-04-03T10:20:01;3.28;;;1.50;;
77586;SDS011;66744;49.716;17.158;2023-04-03T10:41:07;3.72;;;1.77;;
77586;SDS011;66744;49.716;17.158;2023-04-03T10:43:58;4.57;;;1.85;;
77586;SDS011;66744;49.716;17.158;2023-04-03T10:56:41;3.38;;;2.30;;
77586;SDS011;66744;49.716;17.158;2023-04-03T10:59:57;5.30;;;2.33;;
77586;SDS011;66744;49.716;17.158;2023-04-03T11:03:11;4.13;;;2.38;;
77586;SDS011;66744;49.716;17.158;2023-04-03T11:06:15;3.15;;;2.47;;
77586;SDS011;66744;49.716;17.158;2023-04-03T11:09:34;4.90;;;2.08;;
77586;SDS011;66744;49.716;17.158;2023-04-03T11:12:48;5.88;;;2.63;;
77586;SDS011;66744;49.716;17.158;2023-04-03T11:16:19;3.75;;;2.63;;
77586;SDS011;66744;49.716;17.158;2023-04-03T11:19:32;4.63;;;1.88;;
77586;SDS011;66744;49.716;17.158;2023-04-03T11:26:07;2.70;;;2.22;;
77586;SDS011;66744;49.716;17.158;2023-04-03T11:29:13;3.72;;;1.85;;
77586;SDS011;66744;49.716;17.158;2023-04-03T11:35:33;5.80;;;2.17;;
77586;SDS011;66744;49.716;17.158;2023-04-03T11:38:36;4.63;;;1.83;;
77586;SDS011;66744;49.716;17.158;2023-04-03T11:41:42;4.38;;;2.13;;
77586;SDS011;66744;49.716;17.158;2023-04-03T11:44:43;3.45;;;3.03;;
77586;SDS011;66744;49.716;17.158;2023-04-03T11:50:51;3.60;;;2.75;;
77586;SDS011;66744;49.716;17.158;2023-04-03T11:53:52;3.67;;;2.15;;
77586;SDS011;66744;49.716;17.158;2023-04-03T11:56:54;6.90;;;3.05;;
77586;SDS011;66744;49.716;17.158;2023-04-03T11:59:55;4.70;;;2.33;;
77586;SDS011;66744;49.716;17.158;2023-04-03T12:02:57;3.28;;;2.85;;
77586;SDS011;66744;49.716;17.158;2023-04-03T12:09:15;3.92;;;1.88;;
77586;SDS011;66744;49.716;17.158;2023-04-03T12:12:33;2.85;;;2.45;;
77586;SDS011;66744;49.716;17.158;2023-04-03T12:15:45;3.35;;;1.77;;
77586;SDS011;66744;49.716;17.158;2023-04-03T12:25:00;3.05;;;2.08;;
77586;SDS011;66744;49.716;17.158;2023-04-03T12:28:44;3.95;;;2.22;;
77586;SDS011;66744;49.716;17.158;2023-04-03T12:35:24;5.88;;;2.03;;
77586;SDS011;66744;49.716;17.158;2023-04-03T12:41:45;5.10;;;2.90;;
77586;SDS011;66744;49.716;17.158;2023-04-03T12:48:25;3.88;;;2.17;;
77586;SDS011;66744;49.716;17.158;2023-04-03T12:51:34;2.50;;;1.75;;
77586;SDS011;66744;49.716;17.158;2023-04-03T12:54:40;3.78;;;3.15;;
77586;SDS011;66744;49.716;17.158;2023-04-03T12:57:43;3.15;;;1.58;;
77586;SDS011;66744;49.716;17.158;2023-04-03T13:00:44;3.17;;;1.42;;
77586;SDS011;66744;49.716;17.158;2023-04-03T13:04:01;3.83;;;2.88;;
77586;SDS011;66744;49.716;17.158;2023-04-03T13:07:02;3.28;;;1.88;;
77586;SDS011;66744;49.716;17.158;2023-04-03T13:13:09;5.20;;;2.38;;
77586;SDS011;66744;49.716;17.158;2023-04-03T13:16:11;2.72;;;1.50;;
77586;SDS011;66744;49.716;17.158;2023-04-03T13:19:15;3.03;;;2.00;;
77586;SDS011;66744;49.716;17.158;2023-04-03T13:25:41;2.83;;;1.83;;
77586;SDS011;66744;49.716;17.158;2023-04-03T13:28:44;3.72;;;2.15;;
77586;SDS011;66744;49.716;17.158;2023-04-03T13:31:46;3.40;;;2.25;;
77586;SDS011;66744;49.716;17.158;2023-04-03T13:34:56;2.60;;;1.45;;
77586;SDS011;66744;49.716;17.158;2023-04-03T13:41:38;3.75;;;1.83;;
77586;SDS011;66744;49.716;17.158;2023-04-03T13:44:41;3.88;;;2.40;;
77586;SDS011;66744;49.716;17.158;2023-04-03T13:47:43;2.95;;;2.70;;
77586;SDS011;66744;49.716;17.158;2023-04-03T13:51:29;4.72;;;3.25;;
77586;SDS011;66744;49.716;17.158;2023-04-03T13:54:47;3.05;;;1.90;;
77586;SDS011;66744;49.716;17.158;2023-04-03T13:57:52;3.05;;;2.03;;
77586;SDS011;66744;49.716;17.158;2023-04-03T14:04:14;8.93;;;1.95;;
77586;SDS011;66744;49.716;17.158;2023-04-03T14:07:18;3.35;;;2.13;;
77586;SDS011;66744;49.716;17.158;2023-04-03T14:10:22;4.65;;;1.60;;
77586;SDS011;66744;49.716;17.158;2023-04-03T14:13:23;3.60;;;2.85;;
77586;SDS011;66744;49.716;17.158;2023-04-03T14:16:26;4.68;;;2.40;;
77586;SDS011;66744;49.716;17.158;2023-04-03T14:19:33;3.33;;;2.40;;
77586;SDS011;66744;49.716;17.158;2023-04-03T14:22:35;3.50;;;1.77;;
77586;SDS011;66744;49.716;17.158;2023-04-03T14:25:38;2.85;;;1.90;;
77586;SDS011;66744;49.716;17.158;2023-04-03T14:28:40;2.60;;;1.60;;
77586;SDS011;66744;49.716;17.158;2023-04-03T14:31:43;4.15;;;2.22;;
77586;SDS011;66744;49.716;17.158;2023-04-03T14:34:45;6.07;;;2.63;;
77586;SDS011;66744;49.716;17.158;2023-04-03T14:37:47;4.53;;;1.98;;
77586;SDS011;66744;49.716;17.158;2023-04-03T14:40:49;2.40;;;1.55;;
77586;SDS011;66744;49.716;17.158;2023-04-03T14:43:51;3.08;;;2.13;;
77586;SDS011;66744;49.716;17.158;2023-04-03T14:46:52;4.30;;;2.50;;
77586;SDS011;66744;49.716;17.158;2023-04-03T14:49:54;7.05;;;3.92;;
77586;SDS011;66744;49.716;17.158;2023-04-03T14:53:15;4.93;;;2.60;;
77586;SDS011;66744;49.716;17.158;2023-04-03T14:56:19;7.13;;;3.15;;
77586;SDS011;66744;49.716;17.158;2023-04-03T14:59:23;10.73;;;4.95;;
77586;SDS011;66744;49.716;17.158;2023-04-03T15:05:31;5.18;;;2.33;;
77586;SDS011;66744;49.716;17.158;2023-04-03T15:08:32;4.68;;;2.38;;
77586;SDS011;66744;49.716;17.158;2023-04-03T15:11:34;3.03;;;1.65;;
77586;SDS011;66744;49.716;17.158;2023-04-03T15:14:35;2.38;;;1.42;;
77586;SDS011;66744;49.716;17.158;2023-04-03T15:17:37;4.65;;;2.03;;
77586;SDS011;66744;49.716;17.158;2023-04-03T15:20:38;5.07;;;3.17;;
77586;SDS011;66744;49.716;17.158;2023-04-03T15:23:40;3.45;;;2.30;;
77586;SDS011;66744;49.716;17.158;2023-04-03T15:26:42;5.85;;;2.40;;
77586;SDS011;66744;49.716;17.158;2023-04-03T15:29:43;2.67;;;2.10;;
77586;SDS011;66744;49.716;17.158;2023-04-03T15:32:45;3.85;;;2.05;;
77586;SDS011;66744;49.716;17.158;2023-04-03T15:35:47;7.20;;;2.08;;
77586;SDS011;66744;49.716;17.158;2023-04-03T15:38:48;3.85;;;1.98;;
77586;SDS011;66744;49.716;17.158;2023-04-03T15:41:49;4.03;;;2.78;;
77586;SDS011;66744;49.716;17.158;2023-04-03T15:44:52;3.58;;;2.33;;
77586;SDS011;66744;49.716;17.158;2023-04-03T15:47:54;5.20;;;2.10;;
77586;SDS011;66744;49.716;17.158;2023-04-03T15:50:55;6.00;;;2.22;;
77586;SDS011;66744;49.716;17.158;2023-04-03T15:53:57;4.13;;;2.17;;
77586;SDS011;66744;49.716;17.158;2023-04-03T15:56:58;3.00;;;1.95;;
77586;SDS011;66744;49.716;17.158;2023-04-03T16:00:00;4.35;;;2.35;;
77586;SDS011;66744;49.716;17.158;2023-04-03T16:03:03;4.72;;;2.10;;
77586;SDS011;66744;49.716;17.158;2023-04-03T16:06:06;6.18;;;2.97;;
77586;SDS011;66744;49.716;17.158;2023-04-03T16:09:09;5.43;;;3.13;;
77586;SDS011;66744;49.716;17.158;2023-04-03T16:12:11;4.30;;;2.60;;
77586;SDS011;66744;49.716;17.158;2023-04-03T16:15:12;4.07;;;1.85;;
77586;SDS011;66744;49.716;17.158;2023-04-03T16:18:14;5.47;;;2.97;;
77586;SDS011;66744;49.716;17.158;2023-04-03T16:21:15;2.35;;;2.13;;
77586;SDS011;66744;49.716;17.158;2023-04-03T16:24:17;4.80;;;1.80;;
77586;SDS011;66744;49.716;17.158;2023-04-03T16:27:19;8.10;;;2.92;;
77586;SDS011;66744;49.716;17.158;2023-04-03T16:30:21;3.47;;;2.10;;
77586;SDS011;66744;49.716;17.158;2023-04-03T16:33:22;5.70;;;2.80;;
77586;SDS011;66744;49.716;17.158;2023-04-03T16:36:24;2.80;;;1.80;;
77586;SDS011;66744;49.716;17.158;2023-04-03T16:39:27;4.22;;;2.28;;
77586;SDS011;66744;49.716;17.158;2023-04-03T16:42:30;4.95;;;3.20;;
77586;SDS011;66744;49.716;17.158;2023-04-03T16:45:31;4.45;;;2.70;;
77586;SDS011;66744;49.716;17.158;2023-04-03T16:48:33;5.03;;;3.15;;
77586;SDS011;66744;49.716;17.158;2023-04-03T16:51:35;3.50;;;2.08;;
77586;SDS011;66744;49.716;17.158;2023-04-03T16:54:53;5.13;;;2.90;;
77586;SDS011;66744;49.716;17.158;2023-04-03T16:58:10;3.92;;;2.30;;
77586;SDS011;66744;49.716;17.158;2023-04-03T17:01:18;4.95;;;2.40;;
77586;SDS011;66744;49.716;17.158;2023-04-03T17:04:20;4.07;;;2.45;;
77586;SDS011;66744;49.716;17.158;2023-04-03T17:07:22;4.57;;;2.50;;
77586;SDS011;66744;49.716;17.158;2023-04-03T17:10:25;6.72;;;2.47;;
77586;SDS011;66744;49.716;17.158;2023-04-03T17:13:26;5.30;;;2.67;;
77586;SDS011;66744;49.716;17.158;2023-04-03T17:16:34;4.22;;;2.42;;
77586;SDS011;66744;49.716;17.158;2023-04-03T17:19:37;5.95;;;2.38;;
77586;SDS011;66744;49.716;17.158;2023-04-03T17:22:40;8.27;;;2.40;;
77586;SDS011;66744;49.716;17.158;2023-04-03T17:25:45;5.20;;;2.83;;
77586;SDS011;66744;49.716;17.158;2023-04-03T17:28:46;5.78;;;3.05;;
77586;SDS011;66744;49.716;17.158;2023-04-03T17:31:47;3.85;;;2.47;;
77586;SDS011;66744;49.716;17.158;2023-04-03T17:34:49;6.25;;;2.70;;
77586;SDS011;66744;49.716;17.158;2023-04-03T17:37:50;6.85;;;1.95;;
77586;SDS011;66744;49.716;17.158;2023-04-03T17:44:20;2.67;;;1.95;;
77586;SDS011;66744;49.716;17.158;2023-04-03T17:47:22;4.50;;;1.88;;
77586;SDS011;66744;49.716;17.158;2023-04-03T17:50:23;6.07;;;2.08;;
77586;SDS011;66744;49.716;17.158;2023-04-03T17:53:25;4.40;;;2.47;;
77586;SDS011;66744;49.716;17.158;2023-04-03T17:56:27;4.82;;;2.25;;
77586;SDS011;66744;49.716;17.158;2023-04-03T17:59:28;6.20;;;2.28;;
77586;SDS011;66744;49.716;17.158;2023-04-03T18:02:31;3.92;;;1.80;;
77586;SDS011;66744;49.716;17.158;2023-04-03T18:05:38;4.95;;;3.35;;
77586;SDS011;66744;49.716;17.158;2023-04-03T18:08:41;5.53;;;3.10;;
77586;SDS011;66744;49.716;17.158;2023-04-03T18:11:46;6.47;;;2.38;;
77586;SDS011;66744;49.716;17.158;2023-04-03T18:14:48;4.70;;;2.83;;
77586;SDS011;66744;49.716;17.158;2023-04-03T18:17:50;5.93;;;2.90;;
77586;SDS011;66744;49.716;17.158;2023-04-03T18:20:56;5.60;;;2.85;;
77586;SDS011;66744;49.716;17.158;2023-04-03T18:23:58;6.05;;;3.08;;
77586;SDS011;66744;49.716;17.158;2023-04-03T18:27:01;5.25;;;2.92;;
77586;SDS011;66744;49.716;17.158;2023-04-03T18:30:08;5.78;;;3.63;;
77586;SDS011;66744;49.716;17.158;2023-04-03T18:33:12;9.63;;;4.30;;
77586;SDS011;66744;49.716;17.158;2023-04-03T18:36:14;4.50;;;3.60;;
77586;SDS011;66744;49.716;17.158;2023-04-03T18:39:16;8.13;;;4.20;;
77586;SDS011;66744;49.716;17.158;2023-04-03T18:42:18;7.35;;;3.40;;
77586;SDS011;66744;49.716;17.158;2023-04-03T18:45:22;9.45;;;4.40;;
77586;SDS011;66744;49.716;17.158;2023-04-03T18:48:24;6.47;;;3.92;;
77586;SDS011;66744;49.716;17.158;2023-04-03T18:51:28;7.82;;;3.90;;
77586;SDS011;66744;49.716;17.158;2023-04-03T18:54:30;4.40;;;2.80;;
77586;SDS011;66744;49.716;17.158;2023-04-03T18:57:38;4.95;;;2.40;;
77586;SDS011;66744;49.716;17.158;2023-04-03T19:00:40;3.92;;;2.95;;
77586;SDS011;66744;49.716;17.158;2023-04-03T19:03:51;5.07;;;2.83;;
77586;SDS011;66744;49.716;17.158;2023-04-03T19:06:55;6.15;;;3.53;;
77586;SDS011;66744;49.716;17.158;2023-04-03T19:09:57;7.95;;;4.13;;
77586;SDS011;66744;49.716;17.158;2023-04-03T19:12:59;4.63;;;3.80;;
77586;SDS011;66744;49.716;17.158;2023-04-03T19:16:00;6.97;;;3.75;;
77586;SDS011;66744;49.716;17.158;2023-04-03T19:19:02;6.68;;;2.85;;
77586;SDS011;66744;49.716;17.158;2023-04-03T19:22:03;6.05;;;3.63;;
77586;SDS011;66744;49.716;17.158;2023-04-03T19:25:07;5.65;;;2.35;;
77586;SDS011;66744;49.716;17.158;2023-04-03T19:28:12;7.10;;;3.63;;
77586;SDS011;66744;49.716;17.158;2023-04-03T19:31:15;4.82;;;3.17;;
77586;SDS011;66744;49.716;17.158;2023-04-03T19:34:18;4.05;;;2.75;;
77586;SDS011;66744;49.716;17.158;2023-04-03T19:37:19;4.35;;;3.15;;
77586;SDS011;66744;49.716;17.158;2023-04-03T19:40:26;5.88;;;3.00;;
77586;SDS011;66744;49.716;17.158;2023-04-03T19:43:31;4.05;;;3.25;;
77586;SDS011;66744;49.716;17.158;2023-04-03T19:46:32;4.07;;;2.28;;
77586;SDS011;66744;49.716;17.158;2023-04-03T19:49:34;4.63;;;2.85;;
77586;SDS011;66744;49.716;17.158;2023-04-03T19:52:36;5.88;;;2.60;;
77586;SDS011;66744;49.716;17.158;2023-04-03T19:55:37;4.82;;;2.75;;
77586;SDS011;66744;49.716;17.158;2023-04-03T19:58:38;3.80;;;2.33;;
77586;SDS011;66744;49.716;17.158;2023-04-03T20:01:41;6.72;;;3.00;;